Time;durP1;ratioP1;P1;durP2;ratioP2;P2;SDS_P1;SDS_P2;PMS_P1;PMS_P2;Temp;Humidity;BMP_temperature;BMP_pressure;BME280_temperature;BME280_humidity;BME280_pressure;Samples;Min_cycle;Max_cycle;Signal;HPM_P1;HPM_P2
2023/10/17 00:01:47;;;;;;;4.65;3.65;;;;;;;8.61;53.80;99635.09;5129058;28;20070;-74
2023/10/17 00:04:26;;;;;;;4.68;3.45;;;;;;;8.52;54.40;99633.72;5129196;28;20040;-74
2023/10/17 00:06:54;;;;;;;5.78;3.70;;;;;;;8.51;54.39;99634.66;5129469;28;20062;-75
2023/10/17 00:09:23;;;;;;;6.05;3.78;;;;;;;8.48;54.36;99639.19;5128596;28;20054;-73
2023/10/17 00:11:58;;;;;;;5.25;3.60;;;;;;;8.52;53.54;99633.72;5129361;28;20173;-74
2023/10/17 00:14:34;;;;;;;6.30;3.78;;;;;;;7.99;53.90;99547.06;5128479;28;20054;-74
2023/10/17 00:17:03;;;;;;;5.43;3.30;;;;;;;8.45;54.25;99634.91;5129245;28;20107;-74
2023/10/17 00:19:31;;;;;;;5.32;3.67;;;;;;;8.02;53.83;99561.91;5129208;28;20047;-74
2023/10/17 00:21:59;;;;;;;4.88;3.42;;;;;;;8.48;53.52;99626.00;5129058;28;20066;-74
2023/10/17 00:24:26;;;;;;;5.03;3.53;;;;;;;8.29;53.63;99604.78;5129405;28;20088;-74
2023/10/17 00:26:52;;;;;;;6.22;4.03;;;;;;;8.38;53.65;99622.88;5127920;28;20051;-74
2023/10/17 00:29:19;;;;;;;5.55;3.70;;;;;;;8.38;53.07;99622.03;5128573;28;20036;-73
2023/10/17 00:31:47;;;;;;;5.53;3.58;;;;;;;8.32;53.04;99629.28;5128687;28;20104;-73
2023/10/17 00:34:15;;;;;;;5.57;3.10;;;;;;;8.26;53.00;99624.25;5127830;28;20043;-73
2023/10/17 00:36:48;;;;;;;5.65;3.40;;;;;;;8.30;53.04;99624.97;5128730;28;20102;-74
2023/10/17 00:39:17;;;;;;;5.60;3.67;;;;;;;8.29;53.35;99623.25;5129188;28;20055;-75
2023/10/17 00:41:52;;;;;;;5.70;3.65;;;;;;;8.30;53.20;99622.34;5129144;28;20047;-75
2023/10/17 00:44:30;;;;;;;5.68;3.20;;;;;;;8.32;53.36;99620.50;5129018;28;20076;-75
2023/10/17 00:46:58;;;;;;;5.95;4.10;;;;;;;7.65;52.69;99515.91;5128711;28;20107;-73
2023/10/17 00:49:26;;;;;;;6.05;4.25;;;;;;;7.62;52.92;99518.69;5128382;28;20047;-73
2023/10/17 00:51:55;;;;;;;5.57;3.50;;;;;;;8.22;53.13;99621.81;5127505;28;20032;-73
2023/10/17 00:54:24;;;;;;;5.47;3.70;;;;;;;8.21;53.15;99623.59;5128302;28;20230;-73
2023/10/17 00:56:54;;;;;;;5.60;3.80;;;;;;;8.24;53.13;99618.16;5128228;28;20122;-74
2023/10/17 00:59:25;;;;;;;6.57;3.72;;;;;;;7.64;53.07;99516.84;5127854;28;20219;-73
2023/10/17 01:01:52;;;;;;;6.10;4.30;;;;;;;8.24;53.04;99617.31;5128016;28;20062;-74
2023/10/17 01:04:23;;;;;;;7.57;4.47;;;;;;;8.03;53.28;99596.16;5127176;28;20035;-74
2023/10/17 01:06:54;;;;;;;5.90;4.00;;;;;;;8.00;54.06;99579.59;5127986;28;20066;-74
2023/10/17 01:09:24;;;;;;;6.63;4.00;;;;;;;8.14;53.79;99619.47;5127169;28;20270;-74
2023/10/17 01:11:51;;;;;;;6.55;4.07;;;;;;;8.17;53.14;99611.44;5127815;28;20044;-73
2023/10/17 01:14:23;;;;;;;5.47;3.92;;;;;;;8.21;53.28;99604.25;5127328;28;20047;-74
2023/10/17 01:16:51;;;;;;;6.35;4.07;;;;;;;7.70;53.20;99534.19;5128202;28;20089;-74
2023/10/17 01:19:21;;;;;;;6.25;3.83;;;;;;;8.05;53.46;99608.44;5126906;28;20044;-74
2023/10/17 01:21:48;;;;;;;5.45;4.10;;;;;;;7.99;53.81;99597.19;5128557;28;20220;-74
2023/10/17 01:24:18;;;;;;;6.20;3.78;;;;;;;8.02;53.65;99601.50;5127872;28;20299;-75
2023/10/17 01:26:46;;;;;;;6.43;3.95;;;;;;;7.24;53.80;99467.44;5126834;28;20047;-74
2023/10/17 01:29:13;;;;;;;5.75;4.13;;;;;;;8.07;53.97;99598.66;5127548;28;20047;-74
2023/10/17 01:31:42;;;;;;;4.68;4.07;;;;;;;8.04;53.76;99604.94;5127809;28;20069;-74
2023/10/17 01:34:11;;;;;;;5.15;3.38;;;;;;;7.94;54.73;99604.44;5127769;28;20183;-74
2023/10/17 01:36:38;;;;;;;4.75;3.78;;;;;;;7.83;54.24;99603.16;5126554;28;20053;-75
2023/10/17 01:39:08;;;;;;;5.93;4.28;;;;;;;7.90;54.17;99596.72;5127393;28;20049;-74
2023/10/17 01:41:38;;;;;;;6.57;4.05;;;;;;;7.91;54.38;99599.28;5127327;28;20039;-75
2023/10/17 01:44:05;;;;;;;5.40;4.55;;;;;;;7.66;54.98;99567.75;5127198;28;20031;-75
2023/10/17 01:46:32;;;;;;;5.55;3.97;;;;;;;7.89;54.79;99589.72;5127300;27;20191;-75
2023/10/17 01:49:09;;;;;;;5.18;3.63;;;;;;;7.88;54.34;99593.28;5127891;28;20050;-75
2023/10/17 01:51:36;;;;;;;4.82;4.32;;;;;;;7.86;54.71;99590.69;5109392;28;20044;-74
2023/10/17 01:54:07;;;;;;;5.75;3.95;;;;;;;7.81;54.89;99589.16;5127334;28;20143;-74
2023/10/17 01:56:39;;;;;;;5.45;4.57;;;;;;;6.85;54.68;99429.47;5126224;28;20035;-73
2023/10/17 01:59:07;;;;;;;5.28;3.88;;;;;;;7.81;54.84;99595.31;5126121;28;20374;-74
2023/10/17 02:01:36;;;;;;;6.43;4.35;;;;;;;7.74;54.69;99590.34;5127004;28;20075;-75
2023/10/17 02:04:03;;;;;;;5.90;4.68;;;;;;;7.81;55.42;99587.38;5127105;28;20040;-74
2023/10/17 02:06:30;;;;;;;7.53;4.82;;;;;;;7.74;55.06;99592.97;5127160;28;20043;-74
2023/10/17 02:08:58;;;;;;;6.47;4.55;;;;;;;7.73;54.71;99589.47;5127416;28;20307;-75
2023/10/17 02:11:26;;;;;;;7.00;5.10;;;;;;;7.23;55.30;99525.50;5125955;28;20329;-74
2023/10/17 02:13:57;;;;;;;7.05;4.70;;;;;;;7.72;55.34;99592.19;5125896;28;20089;-73
2023/10/17 02:16:24;;;;;;;7.13;4.35;;;;;;;7.76;55.34;99602.53;5126917;28;20039;-74
2023/10/17 02:18:51;;;;;;;8.40;4.75;;;;;;;7.77;55.42;99599.00;5126944;28;20040;-74
2023/10/17 02:21:21;;;;;;;6.82;4.32;;;;;;;7.77;55.36;99603.41;5126845;28;20101;-74
2023/10/17 02:23:50;;;;;;;5.70;4.00;;;;;;;7.67;55.65;99606.41;5126711;28;20039;-74
2023/10/17 02:26:23;;;;;;;8.18;4.45;;;;;;;7.70;55.66;99601.00;5126440;28;20043;-74
2023/10/17 02:28:53;;;;;;;7.38;5.22;;;;;;;7.67;55.86;99595.84;5127038;28;20055;-74
2023/10/17 02:31:29;;;;;;;5.82;4.65;;;;;;;7.66;56.21;99599.41;5126123;28;20035;-74
2023/10/17 02:33:56;;;;;;;8.07;4.45;;;;;;;7.65;55.99;99595.06;5125592;28;20118;-74
2023/10/17 02:36:26;;;;;;;6.35;4.68;;;;;;;7.62;55.77;99596.97;5126969;28;20103;-75
2023/10/17 02:38:53;;;;;;;7.05;4.40;;;;;;;7.35;56.03;99538.25;5126629;28;20039;-74
2023/10/17 02:41:21;;;;;;;6.72;4.78;;;;;;;7.67;55.71;99592.34;5126343;28;20361;-74
2023/10/17 02:43:52;;;;;;;7.93;4.90;;;;;;;7.62;56.09;99591.69;5125593;28;20035;-74
2023/10/17 02:46:26;;;;;;;7.72;4.68;;;;;;;7.62;56.01;99583.75;5125365;28;20114;-74
2023/10/17 02:48:53;;;;;;;6.75;4.50;;;;;;;7.40;55.98;99540.69;5125671;28;20101;-74
2023/10/17 02:51:33;;;;;;;6.32;4.40;;;;;;;7.59;56.29;99582.09;5126444;28;20062;-74
2023/10/17 02:54:01;;;;;;;6.07;4.75;;;;;;;6.90;56.03;99478.44;5126695;28;20070;-74
2023/10/17 02:56:35;;;;;;;6.93;4.95;;;;;;;7.62;56.07;99589.03;5126448;28;20046;-74
2023/10/17 02:59:06;;;;;;;5.40;4.20;;;;;;;7.58;55.92;99598.00;5126141;28;20051;-74
2023/10/17 03:01:37;;;;;;;13.52;4.63;;;;;;;7.54;56.13;99599.88;5125276;28;20051;-74
2023/10/17 03:04:07;;;;;;;9.63;4.20;;;;;;;7.53;56.39;99594.69;5126588;28;20074;-74
2023/10/17 03:06:37;;;;;;;7.50;4.82;;;;;;;7.55;56.39;99600.75;5126303;28;20040;-74
2023/10/17 03:09:16;;;;;;;6.10;4.40;;;;;;;6.67;56.67;99460.00;5125225;28;20054;-74
2023/10/17 03:11:50;;;;;;;6.03;4.65;;;;;;;7.00;56.52;99507.94;5125939;28;20051;-74
2023/10/17 03:14:22;;;;;;;6.35;4.40;;;;;;;7.49;56.51;99604.50;5126285;28;20047;-74
2023/10/17 03:16:52;;;;;;;4.82;3.88;;;;;;;7.32;56.56;99578.72;5126219;28;20100;-74
2023/10/17 03:19:25;;;;;;;7.00;5.18;;;;;;;7.38;56.95;99607.53;5125300;28;20074;-74
2023/10/17 03:21:53;;;;;;;7.60;4.85;;;;;;;7.42;57.03;99607.41;5125877;28;20046;-75
2023/10/17 03:24:28;;;;;;;8.90;4.93;;;;;;;7.42;57.20;99604.78;5128914;28;20118;-75
2023/10/17 03:27:06;;;;;;;7.32;5.28;;;;;;;7.37;57.46;99607.59;5130535;28;20283;-74
2023/10/17 03:29:35;;;;;;;8.00;5.68;;;;;;;7.27;57.59;99600.91;5128884;28;20043;-74
2023/10/17 03:32:04;;;;;;;6.95;5.35;;;;;;;7.33;57.93;99604.22;5130405;28;20106;-75
2023/10/17 03:34:35;;;;;;;7.45;4.88;;;;;;;7.30;57.70;99601.66;5130118;28;20046;-74
2023/10/17 03:37:26;;;;;;;9.35;5.00;;;;;;;7.24;57.92;99593.13;5130303;28;20177;-74
2023/10/17 03:39:55;;;;;;;6.13;5.13;;;;;;;7.25;57.95;99593.06;5128835;28;20039;-74
2023/10/17 03:42:41;;;;;;;7.97;5.70;;;;;;;7.28;58.10;99597.38;5129661;28;20062;-74
2023/10/17 03:45:16;;;;;;;6.00;4.93;;;;;;;6.59;57.89;99514.72;5129615;28;20032;-74
2023/10/17 03:47:52;;;;;;;6.22;4.93;;;;;;;7.25;58.05;99598.34;5129595;28;20230;-75
2023/10/17 03:50:34;;;;;;;7.30;5.18;;;;;;;7.13;58.82;99588.25;5130057;28;20093;-74
2023/10/17 03:53:07;;;;;;;6.22;5.63;;;;;;;6.91;59.05;99580.28;5128607;28;20123;-75
2023/10/17 03:55:35;;;;;;;6.85;5.32;;;;;;;7.09;59.11;99580.53;5129688;28;20035;-75
2023/10/17 03:58:08;;;;;;;7.13;5.93;;;;;;;7.11;59.26;99582.19;5129584;28;20097;-75
2023/10/17 04:00:41;;;;;;;7.20;5.22;;;;;;;6.39;59.58;99470.69;5129222;28;20371;-75
2023/10/17 04:03:18;;;;;;;6.93;5.25;;;;;;;7.11;59.11;99587.44;5129138;28;20045;-75
2023/10/17 04:05:45;;;;;;;6.47;5.25;;;;;;;7.11;59.08;99590.09;5129267;28;20090;-74
2023/10/17 04:08:14;;;;;;;8.80;5.30;;;;;;;7.09;59.34;99591.06;5129486;28;20092;-74
2023/10/17 04:10:49;;;;;;;7.65;5.30;;;;;;;7.08;59.69;99595.47;5128381;28;20226;-74
2023/10/17 04:13:23;;;;;;;8.15;5.63;;;;;;;7.07;59.23;99573.53;5111484;28;20119;-74
2023/10/17 04:15:50;;;;;;;8.98;6.55;;;;;;;6.89;59.62;99549.63;5129502;28;20039;-74
2023/10/17 04:18:22;;;;;;;7.60;5.80;;;;;;;7.05;59.48;99580.63;5129295;28;20062;-74
2023/10/17 04:20:51;;;;;;;8.48;5.45;;;;;;;6.74;59.67;99549.25;5129218;28;20039;-74
2023/10/17 04:23:26;;;;;;;7.38;5.82;;;;;;;6.99;59.69;99582.63;5128233;28;20047;-74
2023/10/17 04:25:55;;;;;;;9.65;6.00;;;;;;;6.13;60.27;99492.66;5129074;28;20089;-74
2023/10/17 04:28:26;;;;;;;6.95;5.30;;;;;;;6.91;60.10;99597.88;5128738;28;20245;-75
2023/10/17 04:30:57;;;;;;;9.55;6.18;;;;;;;6.72;60.74;99597.63;5128742;28;20050;-75
2023/10/17 04:33:28;;;;;;;8.35;5.82;;;;;;;6.62;61.25;99593.59;5127999;28;20039;-74
2023/10/17 04:36:00;;;;;;;8.43;6.07;;;;;;;6.81;60.15;99586.81;5128329;28;20066;-75
2023/10/17 04:38:36;;;;;;;9.68;6.13;;;;;;;6.84;60.08;99585.84;5128900;28;20114;-75
2023/10/17 04:41:17;;;;;;;8.82;5.95;;;;;;;6.90;59.87;99590.88;5128874;27;20207;-75
2023/10/17 04:43:49;;;;;;;10.00;5.80;;;;;;;6.75;60.48;99589.63;5128397;28;20055;-75
2023/10/17 04:46:16;;;;;;;8.25;5.82;;;;;;;6.48;61.02;99594.09;5128380;28;20043;-75
2023/10/17 04:48:46;;;;;;;7.35;5.40;;;;;;;6.54;61.46;99600.91;5128239;28;20035;-74
2023/10/17 04:51:19;;;;;;;7.53;6.72;;;;;;;6.46;61.87;99595.91;5128366;28;20051;-74
2023/10/17 04:53:48;;;;;;;8.73;6.45;;;;;;;6.43;61.29;99582.88;5128884;28;20040;-74
2023/10/17 04:56:18;;;;;;;7.70;6.35;;;;;;;6.31;61.83;99591.19;5128801;28;20054;-74
2023/10/17 04:58:49;;;;;;;9.35;6.95;;;;;;;6.31;61.65;99589.41;5127718;28;20043;-74
2023/10/17 05:04:00;;;;;;;7.05;6.32;;;;;;;5.93;62.09;99535.44;5128095;27;20047;-74
2023/10/17 05:07:05;;;;;;;8.95;6.68;;;;;;;6.17;61.91;99569.72;5128104;28;20039;-74
2023/10/17 06:18:18;;;;;;;;;;;;;;;6.17;62.14;99625.00;5127376;28;20088;-73
2023/10/17 06:21:06;;;;;;;13.63;7.57;;;;;;;6.05;63.18;99621.84;5125736;28;19916;-73
2023/10/17 06:31:56;;;;;;;12.40;7.03;;;;;;;6.07;63.51;99627.06;5119074;28;20211;-74
2023/10/17 06:34:23;;;;;;;12.80;7.75;;;;;;;6.04;63.70;99628.03;5125549;28;20373;-74
2023/10/17 06:36:58;;;;;;;8.80;7.53;;;;;;;5.88;63.45;99608.38;5126943;28;20256;-74
2023/10/17 06:39:36;;;;;;;13.25;8.00;;;;;;;5.97;64.49;99642.28;5126653;28;20043;-74
2023/10/17 06:42:14;;;;;;;11.15;7.28;;;;;;;6.10;64.39;99638.34;5126818;28;20043;-74
2023/10/17 06:44:51;;;;;;;9.20;6.90;;;;;;;5.79;64.79;99613.94;5126168;28;20039;-74
2023/10/17 06:47:18;;;;;;;8.15;6.53;;;;;;;5.62;65.09;99585.53;5126484;28;20059;-74
2023/10/17 06:50:16;;;;;;;11.93;7.93;;;;;;;6.03;64.91;99642.09;5126385;28;20241;-75
2023/10/17 06:52:40;;;;;;;13.07;8.18;;;;;;;6.03;64.50;99641.22;5125919;28;20059;-74
2023/10/17 06:55:08;;;;;;;18.55;8.10;;;;;;;6.07;64.24;99637.59;5126409;28;20044;-75
2023/10/17 06:57:37;;;;;;;13.15;7.85;;;;;;;6.17;63.54;99638.16;5126505;28;20104;-74
2023/10/17 07:00:16;;;;;;;11.00;8.00;;;;;;;6.03;63.36;99642.09;5126491;28;20173;-74
2023/10/17 07:02:48;;;;;;;10.85;7.65;;;;;;;6.18;62.92;99640.75;5125784;28;20052;-74
2023/10/17 07:05:21;;;;;;;12.98;7.75;;;;;;;5.62;62.64;99538.22;5126285;28;20055;-75
2023/10/17 07:07:52;;;;;;;12.35;7.50;;;;;;;6.36;62.85;99642.75;5126578;28;20047;-74
2023/10/17 07:10:37;;;;;;;12.48;7.93;;;;;;;6.47;62.73;99649.44;5125727;28;20223;-74
2023/10/17 07:13:41;;;;;;;9.05;8.10;;;;;;;6.50;62.65;99650.19;5125561;28;20048;-74
2023/10/17 07:16:12;;;;;;;12.45;7.38;;;;;;;6.55;62.16;99645.63;5126722;28;20043;-74
2023/10/17 07:18:46;;;;;;;8.85;7.95;;;;;;;5.85;62.33;99549.75;5125447;28;20312;-74
2023/10/17 07:21:15;;;;;;;9.38;7.85;;;;;;;6.47;62.56;99638.91;5126614;28;20118;-74
2023/10/17 07:23:44;;;;;;;9.60;8.15;;;;;;;6.51;62.19;99630.00;5125920;28;20043;-74
2023/10/17 07:26:17;;;;;;;8.25;7.40;;;;;;;6.53;62.47;99649.22;5126040;28;20042;-74
2023/10/17 07:28:44;;;;;;;11.43;7.88;;;;;;;6.66;62.25;99629.47;5125216;28;20066;-75
2023/10/17 07:31:13;;;;;;;10.63;8.40;;;;;;;6.86;62.18;99629.66;5126696;28;20040;-74
2023/10/17 07:33:42;;;;;;;10.85;9.10;;;;;;;6.97;61.46;99630.13;5125711;28;20089;-74
2023/10/17 07:36:13;;;;;;;10.82;8.05;;;;;;;6.38;61.11;99511.94;5126012;28;20059;-74
2023/10/17 07:38:43;;;;;;;11.63;8.80;;;;;;;7.23;60.62;99629.16;5125729;28;20036;-74
2023/10/17 07:41:14;;;;;;;10.25;8.25;;;;;;;6.93;59.94;99553.88;5125928;28;20047;-74
2023/10/17 07:43:44;;;;;;;10.63;8.88;;;;;;;7.42;59.68;99625.88;5125345;28;20081;-74
2023/10/17 07:46:18;;;;;;;11.18;7.95;;;;;;;7.47;59.50;99618.66;5125011;28;20059;-74
2023/10/17 07:48:48;;;;;;;8.85;7.85;;;;;;;7.60;58.81;99609.34;5125437;28;20118;-75
2023/10/17 07:51:16;;;;;;;10.45;7.53;;;;;;;7.78;58.93;99621.81;5126005;28;20051;-75
2023/10/17 07:53:45;;;;;;;12.45;8.38;;;;;;;7.37;58.93;99557.50;5124520;28;20043;-74
2023/10/17 07:56:20;;;;;;;9.60;7.90;;;;;;;7.88;58.53;99615.25;5125466;28;20086;-75
2023/10/17 07:58:56;;;;;;;12.50;9.25;;;;;;;7.93;58.31;99610.66;5125730;28;20305;-74
2023/10/17 08:01:31;;;;;;;9.85;7.75;;;;;;;8.08;57.68;99616.22;5125608;28;20342;-74
2023/10/17 08:04:13;;;;;;;9.07;8.13;;;;;;;8.18;57.07;99612.28;5125725;28;20047;-74
2023/10/17 08:06:40;;;;;;;11.45;7.97;;;;;;;8.32;57.20;99609.94;5125435;28;20067;-74
2023/10/17 08:09:17;;;;;;;9.07;7.72;;;;;;;8.33;56.98;99590.53;5127433;28;20059;-74
2023/10/17 08:11:46;;;;;;;9.48;8.02;;;;;;;8.03;56.78;99521.38;5129462;28;20380;-74
2023/10/17 08:14:16;;;;;;;12.55;8.20;;;;;;;8.54;56.10;99579.03;5129086;28;20051;-74
2023/10/17 08:16:48;;;;;;;8.95;7.57;;;;;;;8.92;55.53;99605.56;5128149;28;20039;-74
2023/10/17 08:19:16;;;;;;;8.20;7.40;;;;;;;8.97;55.53;99599.16;5129268;28;20048;-75
2023/10/17 08:24:33;;;;;;;10.18;7.63;;;;;;;9.11;54.82;99602.97;5126540;28;20047;-74
2023/10/17 08:27:41;;;;;;;7.95;6.65;;;;;;;9.06;54.52;99597.88;5128225;28;20035;-74
2023/10/17 08:30:14;;;;;;;8.95;6.25;;;;;;;9.16;54.75;99590.38;5128646;28;20295;-75
2023/10/17 08:32:55;;;;;;;8.55;6.82;;;;;;;8.84;54.90;99523.97;5129016;28;20118;-74
2023/10/17 08:35:28;;;;;;;8.48;6.93;;;;;;;8.87;54.30;99520.34;5127886;28;20043;-74
2023/10/17 08:37:55;;;;;;;7.72;6.90;;;;;;;9.47;53.95;99593.41;5127524;28;20043;-74
2023/10/17 08:40:32;;;;;;;10.38;7.85;;;;;;;9.54;54.33;99593.97;5128864;28;20046;-75
2023/10/17 08:43:00;;;;;;;12.02;7.30;;;;;;;9.58;54.61;99592.91;5127645;28;20123;-74
2023/10/17 08:45:28;;;;;;;8.23;6.68;;;;;;;9.67;54.11;99600.41;5128076;28;20201;-75
2023/10/17 08:48:00;;;;;;;8.48;6.90;;;;;;;9.74;53.86;99590.38;5128840;28;20234;-74
2023/10/17 08:50:27;;;;;;;8.23;5.82;;;;;;;9.81;53.80;99589.16;5128234;28;20199;-74
2023/10/17 08:52:59;;;;;;;6.43;5.07;;;;;;;9.99;52.76;99597.97;5128738;28;20039;-75
2023/10/17 08:55:27;;;;;;;7.75;6.30;;;;;;;10.03;52.75;99591.59;5128243;28;20119;-74
2023/10/17 08:57:53;;;;;;;6.97;5.10;;;;;;;10.12;52.32;99588.50;5128290;28;20048;-76
2023/10/17 09:00:48;;;;;;;6.43;5.00;;;;;;;10.06;52.48;99592.31;5127398;28;20233;-74
2023/10/17 09:03:23;;;;;;;10.45;5.65;;;;;;;10.23;51.64;99576.44;5127935;28;20058;-74
2023/10/17 09:06:07;;;;;;;5.97;5.07;;;;;;;10.40;51.29;99572.09;5127199;28;20059;-74
2023/10/17 09:08:48;;;;;;;7.28;4.78;;;;;;;10.37;52.23;99574.88;5128552;28;20055;-75
2023/10/17 09:11:25;;;;;;;7.43;4.93;;;;;;;10.42;51.04;99573.72;5127289;28;20100;-75
2023/10/17 09:16:40;;;;;;;6.47;5.03;;;;;;;10.41;52.04;99579.94;5120482;28;20055;-75
2023/10/17 09:19:10;;;;;;;7.03;4.60;;;;;;;10.40;52.04;99559.69;5128088;28;20055;-74
2023/10/17 09:21:41;;;;;;;5.85;4.88;;;;;;;10.42;51.45;99584.31;5126990;28;20044;-75
2023/10/17 09:24:29;;;;;;;5.43;4.60;;;;;;;10.42;51.20;99579.00;5127640;28;20100;-74
2023/10/17 09:26:58;;;;;;;4.53;4.00;;;;;;;10.46;51.41;99579.72;5127493;28;20107;-74
2023/10/17 09:29:27;;;;;;;5.63;4.43;;;;;;;10.42;51.88;99589.63;5126812;28;20077;-74
2023/10/17 09:31:54;;;;;;;5.97;5.30;;;;;;;10.43;51.56;99572.78;5126665;28;20059;-74
2023/10/17 09:34:25;;;;;;;5.95;4.53;;;;;;;10.25;50.74;99521.59;5127468;28;20047;-74
2023/10/17 09:36:55;;;;;;;7.68;5.80;;;;;;;10.52;50.77;99537.88;5127608;28;20043;-74
2023/10/17 09:39:27;;;;;;;6.75;4.53;;;;;;;9.50;51.25;99378.09;5127542;28;20054;-74
2023/10/17 09:41:54;;;;;;;5.38;4.53;;;;;;;10.44;50.36;99528.59;5126502;28;20122;-75
2023/10/17 09:44:21;;;;;;;7.70;4.55;;;;;;;10.89;50.54;99568.63;5126451;28;20307;-75
2023/10/17 09:46:50;;;;;;;8.25;5.07;;;;;;;10.90;50.96;99565.03;5126325;28;20299;-75
2023/10/17 09:49:22;;;;;;;7.80;4.95;;;;;;;11.07;49.96;99558.81;5127087;28;20110;-75
2023/10/17 09:51:55;;;;;;;6.97;5.43;;;;;;;11.07;50.57;99560.63;5126851;28;20314;-75
2023/10/17 09:54:23;;;;;;;6.20;5.55;;;;;;;10.98;50.22;99559.31;5126979;28;20093;-75
2023/10/17 09:56:51;;;;;;;7.22;5.55;;;;;;;9.20;49.51;99262.31;5126762;28;20225;-74
2023/10/17 09:59:24;;;;;;;6.45;4.95;;;;;;;10.87;50.59;99553.75;5127512;28;20047;-75
2023/10/17 10:01:52;;;;;;;14.85;4.60;;;;;;;10.64;49.42;99519.59;5126986;28;20058;-75
2023/10/17 10:04:19;;;;;;;7.53;4.82;;;;;;;10.77;50.00;99544.53;5127294;28;20051;-75
2023/10/17 10:06:46;;;;;;;5.90;5.30;;;;;;;10.42;50.11;99502.19;5127397;28;20039;-75
2023/10/17 10:09:37;;;;;;;6.68;4.97;;;;;;;10.77;50.44;99542.75;5127072;28;20050;-75
2023/10/17 10:12:04;;;;;;;6.72;4.97;;;;;;;9.30;50.07;99278.56;5126185;28;20055;-75
2023/10/17 10:14:42;;;;;;;5.93;4.93;;;;;;;10.73;50.56;99533.22;5127004;28;20054;-75
2023/10/17 10:17:10;;;;;;;6.95;4.70;;;;;;;10.79;50.52;99530.28;5125748;28;20061;-75
2023/10/17 10:20:02;;;;;;;6.28;5.00;;;;;;;10.85;50.34;99529.09;5126936;28;20043;-75
2023/10/17 10:22:52;;;;;;;6.68;4.93;;;;;;;10.86;50.74;99528.16;5109477;28;20119;-75
2023/10/17 10:25:22;;;;;;;7.32;5.32;;;;;;;10.76;50.58;99526.91;5126424;28;20046;-75
2023/10/17 10:28:13;;;;;;;8.10;5.07;;;;;;;10.72;50.31;99534.16;5126401;28;20051;-75
2023/10/17 10:30:43;;;;;;;8.20;5.25;;;;;;;10.66;50.38;99520.38;5126275;28;20051;-75
2023/10/17 10:33:13;;;;;;;8.77;5.70;;;;;;;10.63;50.08;99516.09;5108491;28;20207;-75
2023/10/17 10:35:45;;;;;;;6.85;5.15;;;;;;;10.66;50.15;99507.97;5125508;28;20256;-75
2023/10/17 10:38:12;;;;;;;6.68;5.05;;;;;;;10.42;50.30;99482.78;5126518;28;20242;-75
2023/10/17 10:40:41;;;;;;;7.38;5.80;;;;;;;10.57;50.91;99504.03;5125594;28;20054;-75
2023/10/17 10:43:11;;;;;;;7.55;5.35;;;;;;;10.54;51.04;99492.72;5125830;28;20194;-75
2023/10/17 10:45:47;;;;;;;8.23;4.88;;;;;;;10.58;50.91;99495.13;5125828;28;20062;-75
2023/10/17 10:48:17;;;;;;;6.32;4.80;;;;;;;10.66;51.12;99489.44;5126059;28;20127;-75
2023/10/17 10:50:46;;;;;;;6.20;5.60;;;;;;;10.39;50.26;99443.19;5126456;28;20163;-75
2023/10/17 10:53:22;;;;;;;6.15;4.55;;;;;;;10.68;50.60;99487.56;5126317;28;20036;-75
2023/10/17 10:55:59;;;;;;;8.60;5.40;;;;;;;10.76;50.37;99476.53;5125152;28;20063;-75
2023/10/17 10:58:28;;;;;;;9.32;5.38;;;;;;;10.54;50.21;99461.78;5125459;28;20035;-75
2023/10/17 11:00:58;;;;;;;7.97;5.03;;;;;;;10.69;49.50;99475.16;5125886;28;20118;-75
2023/10/17 11:03:26;;;;;;;7.10;4.45;;;;;;;10.66;49.92;99460.28;5126115;28;20157;-75
2023/10/17 11:05:54;;;;;;;6.35;4.35;;;;;;;10.24;49.49;99387.44;5126383;28;20036;-75
2023/10/17 11:08:22;;;;;;;7.00;4.20;;;;;;;10.75;49.62;99466.88;5125065;28;20040;-76
2023/10/17 11:10:48;;;;;;;7.40;4.93;;;;;;;10.74;49.88;99462.50;5126468;28;20058;-76
2023/10/17 11:13:17;;;;;;;7.35;4.22;;;;;;;10.78;49.78;99464.09;5125969;28;20084;-75
2023/10/17 11:15:45;;;;;;;7.65;4.35;;;;;;;10.42;49.59;99432.44;5124909;28;20077;-76
2023/10/17 11:18:12;;;;;;;5.32;3.72;;;;;;;10.75;49.83;99469.53;5125747;28;20040;-75
2023/10/17 11:20:41;;;;;;;5.05;4.18;;;;;;;9.93;49.32;99327.31;5125977;28;20062;-75
2023/10/17 11:23:11;;;;;;;8.43;4.45;;;;;;;10.73;49.19;99469.59;5126340;28;20106;-75
2023/10/17 11:25:39;;;;;;;6.50;4.28;;;;;;;10.78;49.27;99464.94;5125918;28;20055;-75
2023/10/17 11:28:07;;;;;;;5.25;4.32;;;;;;;10.77;49.22;99479.13;5125965;28;20039;-75
2023/10/17 11:30:41;;;;;;;6.93;4.35;;;;;;;10.27;49.18;99384.63;5125978;28;20097;-76
2023/10/17 11:33:10;;;;;;;6.22;4.07;;;;;;;10.69;49.05;99465.41;5126379;28;20047;-75
2023/10/17 11:35:38;;;;;;;5.95;3.95;;;;;;;10.72;49.20;99514.75;5124945;28;20036;-75
2023/10/17 11:38:07;;;;;;;5.72;3.58;;;;;;;10.73;49.45;99461.66;5126607;28;20082;-75
2023/10/17 11:40:42;;;;;;;6.25;3.20;;;;;;;10.72;49.15;99456.44;5126397;28;20051;-75
2023/10/17 11:43:19;;;;;;;5.18;3.92;;;;;;;10.72;49.04;99461.75;5126507;28;20055;-75
2023/10/17 11:45:49;;;;;;;4.88;3.80;;;;;;;10.77;48.75;99449.97;5130330;28;20051;-76
2023/10/17 11:48:29;;;;;;;4.88;3.88;;;;;;;10.80;49.16;99444.50;5130145;28;20039;-75
2023/10/17 11:51:06;;;;;;;6.30;4.35;;;;;;;10.32;48.51;99379.09;5130243;28;20055;-75
2023/10/17 11:53:33;;;;;;;5.68;3.90;;;;;;;10.63;48.76;99418.03;5130276;28;20039;-75
2023/10/17 11:56:01;;;;;;;4.00;3.55;;;;;;;8.18;48.04;99000.66;5129967;28;20092;-73
2023/10/17 11:58:29;;;;;;;4.55;3.75;;;;;;;9.75;49.13;99270.06;5128680;28;20122;-73
2023/10/17 12:00:59;;;;;;;5.80;4.15;;;;;;;10.77;48.81;99427.88;5129377;28;20056;-75
2023/10/17 12:03:27;;;;;;;4.88;3.60;;;;;;;10.81;48.69;99430.31;5129314;28;20048;-74
2023/10/17 12:05:55;;;;;;;4.45;3.83;;;;;;;10.84;48.60;99435.44;5128277;28;20088;-74
2023/10/17 12:08:29;;;;;;;6.07;4.35;;;;;;;10.82;48.12;99424.06;5129360;28;20036;-75
2023/10/17 12:10:57;;;;;;;5.50;3.97;;;;;;;10.92;48.46;99435.03;5129289;28;20067;-75
2023/10/17 12:13:26;;;;;;;4.35;3.50;;;;;;;10.93;48.22;99431.44;5129123;28;20111;-76
2023/10/17 12:15:56;;;;;;;13.85;3.85;;;;;;;10.98;48.90;99423.22;5129394;28;20119;-76
2023/10/17 12:18:25;;;;;;;6.28;3.95;;;;;;;11.02;47.01;99415.00;5129025;28;20047;-75
2023/10/17 12:20:55;;;;;;;4.78;3.47;;;;;;;11.11;46.83;99429.56;5128018;28;20039;-75
2023/10/17 12:23:29;;;;;;;7.68;3.65;;;;;;;11.13;46.86;99411.75;5128930;28;20043;-75
2023/10/17 12:25:58;;;;;;;5.53;3.42;;;;;;;11.22;47.23;99414.75;5129042;28;20039;-76
2023/10/17 12:28:26;;;;;;;5.60;3.15;;;;;;;11.24;45.82;99406.69;5129044;28;20110;-76
2023/10/17 12:30:53;;;;;;;5.00;3.28;;;;;;;11.26;46.14;99402.16;5128784;28;20177;-74
2023/10/17 12:33:23;;;;;;;8.48;2.92;;;;;;;10.95;45.82;99346.50;5129276;28;20103;-75
2023/10/17 12:35:52;;;;;;;4.40;3.00;;;;;;;11.21;45.70;99399.75;5127786;28;20032;-76
2023/10/17 12:38:25;;;;;;;3.60;2.88;;;;;;;11.19;46.24;99409.59;5127424;28;20100;-75
2023/10/17 12:40:53;;;;;;;4.03;3.03;;;;;;;11.25;45.13;99392.50;5128903;28;20075;-75
2023/10/17 12:43:21;;;;;;;4.80;2.90;;;;;;;11.27;46.71;99400.34;5127798;28;20051;-76
2023/10/17 12:45:47;;;;;;;4.53;2.90;;;;;;;11.22;45.96;99400.63;5128413;28;20059;-75
2023/10/17 12:48:14;;;;;;;4.60;2.50;;;;;;;11.26;46.09;99396.00;5129271;28;20108;-75
2023/10/17 12:50:43;;;;;;;6.60;3.10;;;;;;;11.22;45.63;99396.16;5127636;28;20047;-76
2023/10/17 12:53:12;;;;;;;3.30;2.70;;;;;;;11.29;43.67;99382.56;5127706;28;20101;-76
2023/10/17 12:55:40;;;;;;;4.75;2.70;;;;;;;11.34;43.56;99412.34;5127951;28;20048;-75
2023/10/17 12:58:10;;;;;;;6.00;2.80;;;;;;;11.31;42.99;99384.19;5127122;28;20044;-75
2023/10/17 13:00:38;;;;;;;4.18;2.88;;;;;;;11.36;42.79;99378.59;5128270;28;20210;-75
2023/10/17 13:03:06;;;;;;;4.88;2.85;;;;;;;11.37;42.67;99382.97;5128351;28;20036;-75
2023/10/17 13:05:34;;;;;;;5.55;2.72;;;;;;;11.36;43.70;99382.09;5127229;28;20057;-75
2023/10/17 13:08:01;;;;;;;6.50;2.63;;;;;;;11.36;43.95;99376.81;5128305;27;20085;-75
2023/10/17 13:10:30;;;;;;;4.68;2.50;;;;;;;11.30;43.96;99373.66;5127981;28;20051;-76
2023/10/17 13:12:58;;;;;;;4.85;2.92;;;;;;;11.27;43.94;99371.19;5128183;28;20036;-76
2023/10/17 13:15:25;;;;;;;5.10;3.30;;;;;;;11.30;43.74;99371.84;5127540;28;20035;-75
2023/10/17 13:17:55;;;;;;;4.85;3.03;;;;;;;11.27;44.23;99365.88;5128182;28;20051;-75
2023/10/17 13:20:28;;;;;;;6.07;2.83;;;;;;;11.19;43.55;99364.50;5127707;28;20043;-75
2023/10/17 13:22:59;;;;;;;3.10;2.40;;;;;;;11.19;44.43;99361.84;5127914;28;20177;-75
2023/10/17 13:25:26;;;;;;;3.60;2.50;;;;;;;11.00;44.01;99315.25;5127452;28;20236;-75